Time;durP1;ratioP1;P1;durP2;ratioP2;P2;SDS_P1;SDS_P2;PMS_P1;PMS_P2;Temp;Humidity;BMP_temperature;BMP_pressure;BME280_temperature;BME280_humidity;BME280_pressure;Samples;Min_cycle;Max_cycle;Signal;HPM_P1;HPM_P2
2022/08/13 00:02:18;;;;;;;8.68;3.10;;;;;;;20.85;45.93;101444.03;6187855;23;20135;-85
2022/08/13 00:05:24;;;;;;;6.47;3.15;;;;;;;20.83;46.91;101443.50;6186186;23;20518;-85
2022/08/13 00:07:41;;;;;;;6.80;2.92;;;;;;;20.77;46.83;101439.06;6183426;23;20005;-85
2022/08/13 00:10:11;;;;;;;5.00;3.30;;;;;;;20.75;47.16;101446.75;6186540;23;20028;-85
2022/08/13 00:12:56;;;;;;;6.68;3.40;;;;;;;20.73;46.79;101443.47;6187059;23;20009;-85
2022/08/13 00:15:32;;;;;;;7.45;3.28;;;;;;;20.65;46.86;101446.69;6187030;23;20404;-85
2022/08/13 00:18:09;;;;;;;8.82;3.30;;;;;;;20.62;46.72;101444.47;6187191;23;20443;-85
2022/08/13 00:20:34;;;;;;;6.90;3.37;;;;;;;20.61;48.40;101440.03;6187668;23;20072;-85
2022/08/13 00:23:00;;;;;;;8.10;3.47;;;;;;;20.57;48.68;101439.75;6185917;23;20367;-85
2022/08/13 00:25:26;;;;;;;6.03;3.15;;;;;;;20.49;48.05;101443.03;6185765;23;20048;-85
2022/08/13 00:27:57;;;;;;;8.07;3.50;;;;;;;20.47;47.86;101451.56;6187037;23;20072;-84
2022/08/13 00:30:33;;;;;;;7.50;3.25;;;;;;;20.36;47.49;101440.75;6186884;23;20439;-86
2022/08/13 00:33:12;;;;;;;5.65;3.20;;;;;;;20.37;48.31;101447.91;6186256;23;20005;-85
2022/08/13 00:35:45;;;;;;;5.47;3.53;;;;;;;20.31;48.48;101444.31;6186264;23;20012;-85
2022/08/13 00:38:21;;;;;;;6.63;3.20;;;;;;;20.23;47.57;101434.63;6186162;23;20518;-85
2022/08/13 00:40:57;;;;;;;8.77;3.60;;;;;;;20.26;47.35;101447.03;6187999;23;20009;-85
2022/08/13 00:43:23;;;;;;;11.60;3.22;;;;;;;20.21;48.21;101445.09;6186068;23;20036;-85
2022/08/13 00:45:49;;;;;;;8.45;3.55;;;;;;;20.14;48.59;101441.72;6185607;23;20170;-85
2022/08/13 00:51:00;;;;;;;8.60;3.40;;;;;;;20.13;47.49;101443.63;6186480;23;20104;-86
2022/08/13 00:53:26;;;;;;;6.83;3.23;;;;;;;20.10;48.20;101446.09;6185567;23;20088;-85
2022/08/13 00:55:58;;;;;;;6.50;3.70;;;;;;;20.03;48.54;101442.75;6187180;23;20063;-85
2022/08/13 00:58:27;;;;;;;7.47;3.50;;;;;;;20.02;50.29;101444.69;6185562;23;20096;-85
2022/08/13 01:00:56;;;;;;;6.40;3.45;;;;;;;19.91;48.46;101438.25;6185471;23;20148;-85
2022/08/13 01:03:23;;;;;;;8.88;3.50;;;;;;;19.86;49.02;101440.97;6187125;23;20005;-86
2022/08/13 01:05:49;;;;;;;6.57;3.70;;;;;;;19.91;48.89;101454.78;6185395;23;20005;-85
2022/08/13 01:08:17;;;;;;;8.00;3.70;;;;;;;19.84;50.36;101447.84;6161061;23;20342;-85
2022/08/13 01:10:48;;;;;;;6.30;3.10;;;;;;;19.79;50.21;101452.19;6185460;23;20012;-85
2022/08/13 01:13:16;;;;;;;6.80;3.78;;;;;;;19.74;50.75;101441.13;6186757;23;20009;-85
2022/08/13 01:15:42;;;;;;;6.65;3.40;;;;;;;19.75;50.25;101453.81;6185649;23;20005;-85
2022/08/13 01:18:13;;;;;;;4.13;3.50;;;;;;;19.69;50.34;101441.06;6187040;23;20087;-85
2022/08/13 01:20:59;;;;;;;8.00;3.90;;;;;;;19.72;49.84;101454.31;6186979;23;20089;-85
2022/08/13 01:23:25;;;;;;;5.80;3.63;;;;;;;19.62;50.36;101441.31;6186973;23;20399;-86
2022/08/13 01:25:52;;;;;;;5.80;3.47;;;;;;;19.63;51.56;101451.25;6184613;23;20021;-85
2022/08/13 01:28:23;;;;;;;6.90;3.20;;;;;;;19.51;50.24;101445.06;6160716;23;20009;-86
2022/08/13 01:30:50;;;;;;;4.93;3.50;;;;;;;19.48;50.56;101445.56;6185674;23;20450;-86
2022/08/13 01:33:17;;;;;;;6.60;3.38;;;;;;;19.45;51.04;101449.66;6185282;23;20009;-85
2022/08/13 01:35:43;;;;;;;6.93;3.55;;;;;;;19.46;52.29;101456.84;6185287;23;20007;-85
2022/08/13 01:38:09;;;;;;;10.02;3.60;;;;;;;19.37;51.58;101443.81;6187084;23;20323;-85
2022/08/13 01:40:34;;;;;;;7.80;3.50;;;;;;;19.36;51.81;101448.50;6184778;23;20019;-86
2022/08/13 01:43:01;;;;;;;6.97;3.33;;;;;;;19.36;51.43;101455.91;6185841;23;20017;-86
2022/08/13 01:45:28;;;;;;;5.22;3.65;;;;;;;19.32;51.86;101454.78;6186312;23;20068;-86
2022/08/13 01:50:38;;;;;;;4.05;3.60;;;;;;;19.31;51.73;101451.19;6185252;23;20074;-85
2022/08/13 01:53:12;;;;;;;5.03;3.50;;;;;;;19.26;50.98;101442.88;6185217;23;20009;-86
2022/08/13 01:55:42;;;;;;;4.88;3.95;;;;;;;19.22;51.61;101444.47;6185074;23;20427;-86
2022/08/13 01:58:11;;;;;;;7.90;3.53;;;;;;;19.18;51.06;101446.13;6186629;23;20009;-85
2022/08/13 02:00:39;;;;;;;8.35;3.63;;;;;;;19.17;52.74;101448.00;6184981;23;20128;-86
2022/08/13 02:03:09;;;;;;;5.73;3.50;;;;;;;19.15;52.65;101449.34;6185118;23;20323;-86
2022/08/13 02:05:38;;;;;;;8.00;3.40;;;;;;;19.13;51.88;101446.03;6184999;23;20067;-85
2022/08/13 02:08:05;;;;;;;4.45;3.45;;;;;;;19.07;52.06;101443.25;6186486;23;20015;-85
2022/08/13 02:10:31;;;;;;;6.85;4.10;;;;;;;19.00;51.27;101444.50;6184506;23;20009;-85
2022/08/13 02:12:57;;;;;;;5.35;3.30;;;;;;;18.95;51.99;101444.47;6184865;23;20043;-85
2022/08/13 02:15:23;;;;;;;4.33;3.70;;;;;;;18.93;52.64;101453.81;6184465;23;20056;-85
2022/08/13 02:17:49;;;;;;;5.18;3.78;;;;;;;18.91;52.20;101445.00;6184996;23;20013;-85
2022/08/13 02:20:17;;;;;;;6.00;3.65;;;;;;;18.93;52.87;101447.47;6186487;23;20001;-86
2022/08/13 02:22:47;;;;;;;7.18;3.95;;;;;;;18.88;53.01;101447.41;6186697;23;20064;-86
2022/08/13 02:25:15;;;;;;;10.10;4.00;;;;;;;18.84;54.16;101446.22;6206105;23;20040;-86
2022/08/13 02:27:41;;;;;;;9.10;3.90;;;;;;;18.84;54.13;101448.97;6216280;23;20414;-86
2022/08/13 02:30:09;;;;;;;7.50;3.67;;;;;;;18.79;53.92;101444.25;6189471;23;20095;-85
2022/08/13 02:32:39;;;;;;;4.53;3.90;;;;;;;18.80;53.98;101442.34;6166596;23;20083;-85
2022/08/13 02:35:09;;;;;;;7.53;4.00;;;;;;;18.72;53.38;101441.69;6190736;23;20015;-85
2022/08/13 02:37:36;;;;;;;7.87;4.10;;;;;;;18.71;52.46;101452.94;6216330;23;20009;-85
2022/08/13 02:40:04;;;;;;;7.68;3.90;;;;;;;18.64;53.65;101436.63;6189759;23;20334;-85
2022/08/13 02:42:31;;;;;;;6.65;3.90;;;;;;;18.67;55.09;101438.06;6189561;23;20044;-86
2022/08/13 02:44:57;;;;;;;8.77;3.85;;;;;;;18.63;53.88;101443.25;6216652;23;20008;-85
2022/08/13 02:47:23;;;;;;;8.70;4.10;;;;;;;18.54;53.18;101440.09;6189473;23;20084;-86
2022/08/13 02:49:51;;;;;;;10.43;3.87;;;;;;;18.57;53.46;101438.75;6164382;23;20058;-86
2022/08/13 02:52:21;;;;;;;5.40;4.30;;;;;;;18.54;53.19;101439.25;6165191;23;20040;-86
2022/08/13 02:54:49;;;;;;;12.07;4.40;;;;;;;18.47;53.02;101438.59;6164930;23;20020;-85
2022/08/13 02:57:15;;;;;;;10.63;4.10;;;;;;;18.42;54.11;101433.88;6164775;23;20012;-85
2022/08/13 02:59:43;;;;;;;6.73;4.07;;;;;;;18.39;53.60;101437.13;6215872;23;20066;-86
2022/08/13 03:02:10;;;;;;;5.75;4.20;;;;;;;18.40;53.58;101449.78;6189575;23;20001;-87
2022/08/13 03:04:36;;;;;;;8.68;4.00;;;;;;;18.32;53.23;101439.22;6216249;23;20138;-86
2022/08/13 03:07:03;;;;;;;9.27;4.25;;;;;;;18.34;54.93;101451.63;6189395;23;20036;-86
2022/08/13 03:09:30;;;;;;;8.30;4.00;;;;;;;18.29;53.83;101447.97;6164766;23;20442;-86
2022/08/13 03:12:00;;;;;;;7.60;3.80;;;;;;;18.21;54.86;101443.75;6216932;23;20070;-86
2022/08/13 03:14:28;;;;;;;5.93;3.90;;;;;;;18.21;54.59;101449.25;6190609;23;20074;-86
2022/08/13 03:16:54;;;;;;;7.35;4.28;;;;;;;18.18;55.63;101447.81;6216094;23;20004;-85
2022/08/13 03:19:20;;;;;;;7.30;4.30;;;;;;;18.22;56.12;101450.91;6190080;23;20096;-85
2022/08/13 03:21:45;;;;;;;6.70;4.30;;;;;;;18.16;55.77;101450.00;6140377;23;20070;-85
2022/08/13 03:24:15;;;;;;;6.00;4.40;;;;;;;18.11;55.00;101449.09;6190458;23;20027;-85
2022/08/13 03:26:41;;;;;;;7.10;4.28;;;;;;;18.12;55.26;101451.59;6189342;23;20036;-85
2022/08/13 03:29:07;;;;;;;5.82;4.25;;;;;;;18.10;55.01;101447.41;6216126;23;20012;-85
2022/08/13 03:31:36;;;;;;;8.53;4.70;;;;;;;18.04;55.46;101455.59;6189866;23;20015;-85
2022/08/13 03:34:03;;;;;;;10.55;4.30;;;;;;;18.02;56.19;101444.00;6189359;23;20074;-85
2022/08/13 03:36:30;;;;;;;6.22;4.45;;;;;;;18.02;56.23;101455.00;6189411;23;20000;-85
2022/08/13 03:38:56;;;;;;;8.63;4.88;;;;;;;17.97;56.43;101443.13;6189122;23;20012;-86
2022/08/13 03:41:23;;;;;;;10.45;4.50;;;;;;;17.95;56.70;101448.00;6189758;23;20507;-85
2022/08/13 03:43:49;;;;;;;11.93;4.60;;;;;;;17.89;55.85;101447.06;6216020;23;20005;-86
2022/08/13 03:46:18;;;;;;;6.68;3.85;;;;;;;17.87;57.16;101443.75;6188989;23;20063;-85
2022/08/13 03:48:44;;;;;;;6.95;3.97;;;;;;;17.88;57.24;101449.00;6189718;23;20020;-85
2022/08/13 03:51:11;;;;;;;9.38;4.50;;;;;;;17.80;57.12;101451.31;6164525;23;20155;-86
2022/08/13 03:53:38;;;;;;;8.40;4.43;;;;;;;17.78;57.26;101443.34;6189024;23;20012;-85
2022/08/13 03:56:05;;;;;;;8.53;4.17;;;;;;;17.75;56.22;101437.53;6190251;23;20039;-86
2022/08/13 03:58:32;;;;;;;5.88;4.10;;;;;;;17.67;56.03;101430.50;6189212;23;20009;-86
2022/08/13 04:01:01;;;;;;;9.88;4.97;;;;;;;17.71;57.15;101445.41;6189588;23;20017;-86
2022/08/13 04:03:28;;;;;;;9.30;4.57;;;;;;;17.68;56.65;101446.72;6217286;23;20012;-85
2022/08/13 04:06:02;;;;;;;6.15;4.18;;;;;;;17.66;56.51;101442.59;6217606;23;20001;-86
2022/08/13 04:08:35;;;;;;;7.53;4.27;;;;;;;17.65;56.98;101451.91;6217367;23;20027;-85
2022/08/13 04:11:06;;;;;;;9.18;4.90;;;;;;;17.63;56.69;101454.06;6190909;23;20012;-86
2022/08/13 04:13:38;;;;;;;8.02;4.57;;;;;;;17.58;56.68;101446.56;6217680;23;20067;-86
2022/08/13 04:16:20;;;;;;;8.25;4.50;;;;;;;17.56;56.42;101454.22;6167094;23;20067;-85
2022/08/13 04:18:48;;;;;;;9.50;4.40;;;;;;;17.53;56.90;101443.72;6191292;23;20334;-85
2022/08/13 04:21:15;;;;;;;11.77;4.93;;;;;;;17.53;57.53;101454.72;6217608;23;20001;-86
2022/08/13 04:23:43;;;;;;;11.05;5.18;;;;;;;17.48;56.85;101444.47;6190623;23;20015;-84
2022/08/13 04:26:09;;;;;;;12.07;4.70;;;;;;;17.52;57.17;101456.63;6191175;23;20054;-85
2022/08/13 04:28:38;;;;;;;9.63;4.90;;;;;;;17.52;57.14;101459.38;6166263;23;20008;-86
2022/08/13 04:31:05;;;;;;;8.20;4.53;;;;;;;17.50;56.77;101452.47;6190503;23;20143;-85
2022/08/13 04:33:31;;;;;;;5.67;4.87;;;;;;;17.49;57.05;101459.03;6217104;23;20008;-85
2022/08/13 04:35:56;;;;;;;9.27;5.22;;;;;;;17.48;56.99;101458.19;6190726;23;20004;-86
2022/08/13 04:38:22;;;;;;;9.70;5.13;;;;;;;17.48;56.74;101462.84;6217369;23;20011;-85
2022/08/13 04:40:53;;;;;;;6.20;4.73;;;;;;;17.51;56.33;101465.09;6190693;23;20008;-85
2022/08/13 04:43:22;;;;;;;10.38;5.03;;;;;;;17.49;56.80;101459.03;6191427;23;20319;-85
2022/08/13 04:45:47;;;;;;;6.30;4.60;;;;;;;17.50;56.05;101464.25;6141010;23;20411;-85
2022/08/13 04:48:15;;;;;;;7.87;5.13;;;;;;;17.48;56.90;101457.34;6190616;23;20040;-85
2022/08/13 04:50:49;;;;;;;7.20;5.28;;;;;;;17.53;56.51;101469.25;6190473;23;20088;-86
2022/08/13 04:53:28;;;;;;;10.25;5.13;;;;;;;17.54;56.81;101462.69;6191592;23;20009;-86
2022/08/13 04:55:56;;;;;;;9.15;5.82;;;;;;;17.52;57.12;101456.63;6190553;23;20009;-85
2022/08/13 04:58:23;;;;;;;10.03;4.83;;;;;;;17.56;57.44;101459.69;6190684;23;20062;-85
2022/08/13 05:00:50;;;;;;;8.52;5.00;;;;;;;17.56;56.53;101462.44;6190825;23;20030;-84
2022/08/13 05:03:25;;;;;;;8.13;4.85;;;;;;;17.59;57.96;101456.47;6190430;23;20016;-85
2022/08/13 05:05:51;;;;;;;7.97;4.65;;;;;;;17.62;57.43;101466.94;6190680;23;20008;-83
2022/08/13 05:08:17;;;;;;;8.35;4.90;;;;;;;17.61;56.99;101458.94;6190092;23;20091;-83
2022/08/13 05:10:45;;;;;;;9.13;4.60;;;;;;;17.66;56.21;101461.81;6190732;23;20035;-83
2022/08/13 05:13:21;;;;;;;9.80;5.07;;;;;;;17.68;55.86;101471.44;6190429;23;20008;-81
2022/08/13 05:15:47;;;;;;;12.15;5.00;;;;;;;17.71;56.27;101473.66;6190231;23;20099;-82
2022/08/13 05:18:13;;;;;;;8.15;5.43;;;;;;;17.70;56.13;101463.78;6217577;23;20043;-82
2022/08/13 05:20:39;;;;;;;9.27;5.30;;;;;;;17.77;55.67;101471.84;6165143;23;20020;-81
2022/08/13 05:23:15;;;;;;;8.15;5.10;;;;;;;17.81;55.96;101473.03;6190939;23;20013;-81
2022/08/13 05:25:41;;;;;;;9.90;5.68;;;;;;;17.77;55.57;101474.59;6190635;23;20427;-81
2022/08/13 05:28:08;;;;;;;12.07;5.40;;;;;;;17.85;55.74;101473.38;6216857;23;20323;-82
2022/08/13 05:30:38;;;;;;;6.28;5.22;;;;;;;17.87;55.55;101482.19;6142053;23;20015;-81
2022/08/13 05:33:13;;;;;;;10.13;5.00;;;;;;;17.92;55.50;101482.28;6190556;23;20012;-82
2022/08/13 05:35:39;;;;;;;10.45;5.05;;;;;;;17.96;55.71;101472.47;6217603;23;20039;-81
2022/08/13 05:38:04;;;;;;;5.50;4.85;;;;;;;18.00;55.33;101470.91;6191245;23;20092;-81
2022/08/13 05:40:30;;;;;;;9.97;5.10;;;;;;;18.05;55.31;101473.75;6165031;23;20500;-81
2022/08/13 05:42:59;;;;;;;6.80;4.80;;;;;;;18.09;55.45;101470.50;6216774;23;20009;-81
2022/08/13 05:45:25;;;;;;;6.45;4.78;;;;;;;18.15;55.61;101473.03;6190002;23;20107;-85
2022/08/13 05:47:51;;;;;;;10.77;4.90;;;;;;;18.20;56.09;101477.78;6190876;23;20039;-84
2022/08/13 05:50:17;;;;;;;12.60;5.10;;;;;;;18.23;56.18;101474.53;6216551;23;20005;-81
2022/08/13 05:52:46;;;;;;;7.73;4.60;;;;;;;18.23;55.96;101477.28;6165038;23;20008;-82
2022/08/13 05:55:13;;;;;;;7.13;4.40;;;;;;;18.34;55.39;101486.53;6216610;23;20244;-83
2022/08/13 05:57:39;;;;;;;8.43;4.70;;;;;;;18.36;55.10;101479.66;6189920;23;20011;-81
2022/08/13 06:05:38;;;;;;;11.40;4.28;;;;;;;18.64;55.29;101466.06;6193800;23;20023;-82
2022/08/13 06:08:06;;;;;;;9.87;4.80;;;;;;;18.67;54.58;101471.84;6217121;23;20038;-81
2022/08/13 06:10:33;;;;;;;7.07;4.43;;;;;;;18.77;54.93;101474.75;6189751;23;20032;-82
2022/08/13 06:12:59;;;;;;;14.98;4.68;;;;;;;18.82;54.67;101473.97;6216053;23;20008;-81
2022/08/13 06:15:25;;;;;;;8.30;4.47;;;;;;;18.89;54.36;101471.06;6189694;23;20015;-81
2022/08/13 06:17:51;;;;;;;9.10;4.20;;;;;;;18.98;53.98;101479.69;6215831;23;20488;-81
2022/08/13 06:20:18;;;;;;;10.23;4.55;;;;;;;19.04;53.79;101471.25;6189464;23;20012;-81
2022/08/13 06:22:47;;;;;;;5.78;4.10;;;;;;;19.13;53.71;101470.78;6190061;23;20039;-81
2022/08/13 06:25:15;;;;;;;5.88;4.60;;;;;;;19.16;53.63;101465.59;6188990;23;20342;-81
2022/08/13 06:27:42;;;;;;;7.43;4.50;;;;;;;19.20;52.55;101466.75;6189244;23;20046;-81
2022/08/13 06:30:09;;;;;;;6.47;4.63;;;;;;;19.31;52.74;101467.72;6216644;23;20430;-82
2022/08/13 06:32:36;;;;;;;8.82;4.85;;;;;;;19.38;52.20;101461.97;6189630;23;20036;-81
2022/08/13 06:35:04;;;;;;;9.70;4.30;;;;;;;19.51;52.14;101469.81;6189164;23;20013;-81
2022/08/13 06:37:31;;;;;;;6.07;4.57;;;;;;;19.55;51.35;101461.88;6216187;23;20008;-81
2022/08/13 06:39:59;;;;;;;9.90;4.60;;;;;;;19.67;51.47;101472.72;6165701;23;20444;-81
2022/08/13 06:42:26;;;;;;;9.00;4.35;;;;;;;19.70;51.26;101467.53;6189388;23;20009;-81
2022/08/13 06:44:54;;;;;;;6.55;4.22;;;;;;;19.74;50.97;101474.16;6189545;23;20512;-81
2022/08/13 06:47:23;;;;;;;9.23;4.75;;;;;;;19.82;51.12;101472.06;6189448;23;20013;-81
2022/08/13 06:49:52;;;;;;;8.07;4.22;;;;;;;19.94;50.85;101487.28;6190198;23;20082;-82
2022/08/13 06:52:18;;;;;;;7.97;4.20;;;;;;;19.98;50.86;101484.84;6189728;23;20062;-81
2022/08/13 06:54:43;;;;;;;9.80;4.30;;;;;;;20.03;50.59;101470.28;6215720;23;20373;-81
2022/08/13 06:57:09;;;;;;;9.10;4.17;;;;;;;20.11;50.53;101475.31;6164577;23;20091;-81
2022/08/13 06:59:39;;;;;;;8.60;4.22;;;;;;;20.18;50.70;101486.09;6140699;23;20068;-81
2022/08/13 07:02:07;;;;;;;5.33;3.80;;;;;;;20.24;50.24;101480.38;6189469;23;20091;-81
2022/08/13 07:04:33;;;;;;;8.23;4.15;;;;;;;20.26;50.03;101478.16;6216063;23;20359;-81
2022/08/13 07:06:59;;;;;;;6.95;4.55;;;;;;;20.33;50.34;101475.19;6189623;23;20094;-82
2022/08/13 07:09:26;;;;;;;9.75;4.18;;;;;;;20.39;49.82;101481.53;6164277;23;20028;-81
2022/08/13 07:11:52;;;;;;;8.47;4.03;;;;;;;20.47;48.87;101481.88;6189705;23;20427;-81
2022/08/13 07:14:17;;;;;;;7.40;3.75;;;;;;;20.55;49.05;101486.06;6189023;23;20062;-82
2022/08/13 07:16:44;;;;;;;8.13;3.60;;;;;;;20.62;49.11;101492.16;6189125;23;20441;-81
2022/08/13 07:19:14;;;;;;;9.55;3.90;;;;;;;20.68;48.59;101484.78;6215665;23;20009;-82
2022/08/13 07:21:42;;;;;;;5.27;3.60;;;;;;;20.76;48.55;101489.78;6189646;23;20331;-81
2022/08/13 07:24:09;;;;;;;7.95;4.03;;;;;;;20.79;48.75;101482.91;6215218;23;20013;-81
2022/08/13 07:26:35;;;;;;;4.15;3.65;;;;;;;20.88;48.43;101480.47;6165098;23;20008;-81
2022/08/13 07:29:04;;;;;;;7.78;3.85;;;;;;;20.99;48.15;101488.53;6164812;23;20019;-82
2022/08/13 07:31:31;;;;;;;9.93;3.60;;;;;;;21.05;48.17;101483.00;6163427;23;20449;-81
2022/08/13 07:34:04;;;;;;;7.70;3.07;;;;;;;21.11;48.77;101485.53;6215681;23;20071;-81
2022/08/13 07:36:32;;;;;;;8.40;3.38;;;;;;;21.22;47.90;101493.84;6190732;23;20005;-81
2022/08/13 07:39:05;;;;;;;6.03;3.53;;;;;;;21.26;48.53;101490.25;6142905;23;20040;-81
2022/08/13 07:41:32;;;;;;;3.88;3.22;;;;;;;21.32;47.87;101485.59;6217953;23;20007;-81
2022/08/13 07:43:59;;;;;;;11.90;3.92;;;;;;;21.40;47.36;101506.28;6191117;23;20338;-80
2022/08/13 07:46:25;;;;;;;7.67;3.40;;;;;;;21.46;47.43;101486.69;6217640;23;20005;-81
2022/08/13 07:48:51;;;;;;;9.82;3.22;;;;;;;21.53;46.96;101494.75;6166203;23;20505;-80
2022/08/13 07:51:19;;;;;;;4.13;3.13;;;;;;;21.61;46.61;101487.84;6166262;23;20005;-80
2022/08/13 07:53:54;;;;;;;8.90;2.80;;;;;;;21.68;46.56;101491.19;6191273;23;20112;-81
2022/08/13 07:56:28;;;;;;;5.82;3.00;;;;;;;21.77;45.99;101497.81;6191480;23;20035;-81
2022/08/13 07:58:58;;;;;;;6.30;2.80;;;;;;;21.84;45.97;101497.53;6218460;23;20054;-80
2022/08/13 08:01:27;;;;;;;5.35;2.92;;;;;;;21.94;45.45;101493.94;6217716;23;20012;-81
2022/08/13 08:03:56;;;;;;;3.92;2.70;;;;;;;21.99;45.03;101491.19;6217826;23;20009;-80
2022/08/13 08:06:22;;;;;;;4.38;2.72;;;;;;;22.10;44.50;101490.09;6167478;23;20080;-81
2022/08/13 08:08:54;;;;;;;9.75;2.92;;;;;;;22.20;44.66;101495.59;6217553;23;20016;-81
2022/08/13 08:14:05;;;;;;;6.72;3.00;;;;;;;22.34;44.77;101490.34;6217975;23;20031;-81
2022/08/13 08:16:34;;;;;;;7.95;2.90;;;;;;;22.37;44.76;101494.50;6191495;23;20418;-81
2022/08/13 08:19:00;;;;;;;5.70;3.00;;;;;;;22.47;44.49;101494.47;6191210;23;20058;-81
2022/08/13 08:21:26;;;;;;;9.32;3.20;;;;;;;22.54;44.41;101496.94;6190840;23;20032;-82
2022/08/13 08:23:57;;;;;;;6.47;2.70;;;;;;;22.58;44.36;101493.31;6216954;23;20076;-81
2022/08/13 08:26:29;;;;;;;7.22;2.97;;;;;;;22.71;43.58;101502.97;6190785;23;20467;-81
2022/08/13 08:28:58;;;;;;;3.90;3.00;;;;;;;22.84;43.27;101500.69;6217694;23;20071;-82
2022/08/13 08:31:25;;;;;;;4.65;2.40;;;;;;;22.85;43.27;101500.41;6216891;23;20012;-81
2022/08/13 08:33:55;;;;;;;4.53;2.67;;;;;;;22.97;41.53;101494.56;6216642;23;20016;-81
2022/08/13 08:36:22;;;;;;;5.07;2.63;;;;;;;23.00;41.55;101482.09;6191023;23;20027;-81
2022/08/13 08:44:23;;;;;;;5.70;2.67;;;;;;;23.29;42.40;101498.88;6217424;23;20053;-81
2022/08/13 08:46:51;;;;;;;5.55;2.70;;;;;;;23.40;42.33;101496.84;6216727;23;20461;-81
2022/08/13 08:49:19;;;;;;;6.20;2.40;;;;;;;23.46;42.18;101502.09;6216867;23;20044;-81
2022/08/13 08:51:45;;;;;;;6.32;2.42;;;;;;;23.57;41.84;101499.25;6190538;23;20100;-81
2022/08/13 08:54:12;;;;;;;5.47;2.50;;;;;;;23.66;41.69;101500.28;6216958;23;20005;-81
2022/08/13 08:56:38;;;;;;;10.07;2.80;;;;;;;23.71;41.60;101497.50;6190279;23;20013;-81
2022/08/13 08:59:03;;;;;;;6.88;2.95;;;;;;;23.78;41.26;101489.69;6191382;23;20012;-81
2022/08/13 09:01:33;;;;;;;4.80;2.30;;;;;;;23.91;40.91;101488.22;6217415;23;20440;-81
2022/08/13 09:04:05;;;;;;;4.50;2.60;;;;;;;24.03;40.45;101490.59;6190988;23;20063;-81
2022/08/13 09:06:31;;;;;;;5.07;2.70;;;;;;;24.11;40.30;101489.13;6190350;23;20005;-81
2022/08/13 09:08:59;;;;;;;7.35;2.55;;;;;;;24.18;40.23;101492.41;6166485;23;20092;-82
2022/08/13 09:11:24;;;;;;;3.08;2.75;;;;;;;24.31;40.17;101494.47;6216992;23;20008;-81
2022/08/13 09:13:52;;;;;;;7.22;2.85;;;;;;;24.42;40.83;101486.91;6217055;23;20016;-81
2022/08/13 09:16:18;;;;;;;6.33;2.70;;;;;;;24.54;40.22;101483.72;6165916;23;20036;-81
2022/08/13 09:18:44;;;;;;;6.32;2.78;;;;;;;24.65;39.73;101484.44;6189546;23;20071;-82
2022/08/13 09:21:13;;;;;;;7.00;2.50;;;;;;;24.81;39.28;101476.78;6190832;23;20012;-81
2022/08/13 09:23:46;;;;;;;5.93;2.50;;;;;;;24.95;38.75;101483.25;6216861;23;20032;-82
2022/08/13 09:26:14;;;;;;;3.38;2.50;;;;;;;25.11;39.05;101486.63;6217378;23;20012;-81
2022/08/13 09:28:42;;;;;;;5.40;2.90;;;;;;;25.21;37.85;101480.13;6216382;23;20012;-80
2022/08/13 09:31:07;;;;;;;4.80;2.60;;;;;;;25.31;38.53;101481.97;6190199;23;20130;-80
2022/08/13 09:33:38;;;;;;;7.28;2.95;;;;;;;25.38;38.54;101486.00;6216803;23;20407;-79
2022/08/13 09:36:07;;;;;;;4.80;2.67;;;;;;;25.54;37.92;101482.97;6190766;23;20046;-80
2022/08/13 09:38:34;;;;;;;8.73;2.70;;;;;;;25.73;37.54;101482.97;6190053;23;20011;-80
2022/08/13 09:41:05;;;;;;;7.18;2.50;;;;;;;25.86;37.01;101475.81;6190012;23;20013;-80
2022/08/13 09:43:39;;;;;;;6.20;2.53;;;;;;;25.98;35.86;101472.56;6217393;23;20059;-80
2022/08/13 09:46:06;;;;;;;4.88;2.50;;;;;;;26.19;35.43;101475.81;6216791;23;20062;-80
2022/08/13 09:48:31;;;;;;;5.53;2.40;;;;;;;26.34;34.66;101469.97;6190212;23;20005;-79
2022/08/13 09:50:56;;;;;;;3.93;2.47;;;;;;;26.48;34.77;101469.97;6216268;23;20033;-80
2022/08/13 09:53:25;;;;;;;2.83;2.50;;;;;;;26.66;34.36;101473.78;6189680;23;20012;-80
2022/08/13 09:55:52;;;;;;;3.80;2.40;;;;;;;26.74;33.86;101466.72;6190667;23;20064;-80
2022/08/13 09:58:18;;;;;;;4.38;2.50;;;;;;;26.93;34.20;101466.59;6189911;23;20031;-80
2022/08/13 10:00:45;;;;;;;6.13;2.10;;;;;;;27.04;31.73;101456.03;6215962;23;20415;-80
2022/08/13 10:03:12;;;;;;;3.90;2.10;;;;;;;27.22;32.77;101460.63;6189827;23;20096;-80
2022/08/13 10:05:38;;;;;;;2.30;2.10;;;;;;;27.36;30.28;101455.06;6216757;23;20005;-80
2022/08/13 10:08:18;;;;;;;7.77;2.00;;;;;;;27.43;31.14;101446.25;6216149;23;20082;-79
2022/08/13 10:10:44;;;;;;;6.03;2.30;;;;;;;27.58;31.23;101447.84;6216802;23;20001;-81
2022/08/13 10:13:10;;;;;;;13.25;2.60;;;;;;;27.76;31.69;101443.22;6189446;23;20437;-80
2022/08/13 10:15:37;;;;;;;5.93;2.20;;;;;;;27.92;31.25;101438.88;6190139;23;20009;-80
2022/08/13 10:18:03;;;;;;;5.17;2.03;;;;;;;28.05;29.99;101431.63;6189698;23;20013;-80
2022/08/13 10:20:34;;;;;;;7.97;2.03;;;;;;;28.25;30.25;101444.16;6216358;23;20331;-80
2022/08/13 10:23:02;;;;;;;3.95;2.00;;;;;;;28.38;28.90;101442.41;6216290;23;20012;-80
2022/08/13 10:25:29;;;;;;;2.90;1.77;;;;;;;28.54;29.72;101437.22;6216708;23;20008;-79
2022/08/13 10:27:54;;;;;;;4.60;1.98;;;;;;;28.68;28.25;101437.94;6216385;23;20068;-80
2022/08/13 10:30:25;;;;;;;4.18;2.05;;;;;;;28.85;28.58;101437.16;6215850;23;20013;-80
2022/08/13 10:32:55;;;;;;;4.93;2.10;;;;;;;29.00;27.47;101430.28;6216316;23;20004;-80
2022/08/13 10:35:25;;;;;;;3.30;2.03;;;;;;;29.13;28.13;101431.28;6189679;23;20020;-80
2022/08/13 10:37:57;;;;;;;3.47;2.28;;;;;;;29.30;27.60;101424.06;6216566;23;20012;-81
2022/08/13 10:40:26;;;;;;;5.75;2.03;;;;;;;29.47;27.24;101438.03;6189978;23;20016;-80
2022/08/13 10:42:52;;;;;;;4.18;2.13;;;;;;;29.62;26.58;101435.88;6165830;23;20035;-80
2022/08/13 10:45:20;;;;;;;3.85;1.70;;;;;;;29.78;26.92;101430.56;6216498;23;20059;-80
2022/08/13 10:47:54;;;;;;;4.20;1.77;;;;;;;30.04;26.38;101422.94;6164688;23;20036;-80
2022/08/13 10:50:26;;;;;;;6.80;1.80;;;;;;;30.19;25.24;101421.59;6190340;23;20192;-80
2022/08/13 10:52:52;;;;;;;5.25;1.85;;;;;;;30.35;25.81;101421.84;6216345;23;20076;-84
2022/08/13 10:55:20;;;;;;;4.65;1.90;;;;;;;30.55;25.64;101420.28;6165751;23;20095;-84
2022/08/13 10:57:46;;;;;;;4.40;2.13;;;;;;;30.77;25.71;101413.56;6217183;23;20028;-84
2022/08/13 11:00:19;;;;;;;5.18;2.00;;;;;;;31.09;25.50;101415.97;6216138;23;20019;-83
2022/08/13 11:06:16;;;;;;;5.43;2.10;;;;;;;31.72;24.73;101415.91;6216007;23;20007;-84
2022/08/13 11:08:41;;;;;;;4.55;2.00;;;;;;;31.92;23.74;101408.59;6166734;23;20056;-84
2022/08/13 11:11:09;;;;;;;3.80;2.10;;;;;;;32.34;23.04;101419.66;6164670;23;20012;-83
2022/08/13 11:13:39;;;;;;;4.03;1.80;;;;;;;32.42;22.25;101417.06;6218077;23;20004;-83
2022/08/13 11:23:22;;;;;;;2.45;2.05;;;;;;;35.50;21.51;101410.69;6219016;23;20012;-82
2022/08/13 11:51:13;;;;;;;8.32;4.10;;;;;;;53.12;9.37;101364.78;6217342;23;20083;-84
2022/08/13 13:03:45;;;;;;;14.35;13.05;;;;;;;60.53;3.61;101274.16;6216578;23;20111;-84
2022/08/13 13:57:46;;;;;;;17.48;16.17;;;;;;;59.52;3.84;101210.03;6215159;23;20503;-84
2022/08/13 15:12:23;;;;;;;12.85;11.93;;;;;;;59.05;3.26;101132.31;6216240;23;20023;-84
2022/08/13 15:19:24;;;;;;;12.15;11.25;;;;;;;59.34;3.77;101126.81;6209651;23;20028;-83
2022/08/13 15:26:06;;;;;;;13.30;12.30;;;;;;;58.54;4.01;101111.69;6215838;23;20016;-84
2022/08/13 15:32:19;;;;;;;13.90;12.90;;;;;;;57.59;3.69;101104.13;6215770;23;20020;-83
2022/08/13 15:38:21;;;;;;;11.00;10.20;;;;;;;56.91;4.84;101103.78;6215660;23;20020;-84
2022/08/13 15:41:07;;;;;;;11.20;10.10;;;;;;;56.96;4.41;101100.03;6216275;23;20439;-84
2022/08/13 15:43:33;;;;;;;11.52;10.50;;;;;;;56.13;4.21;101100.53;6188244;23;20013;-84
2022/08/13 15:46:09;;;;;;;10.70;10.00;;;;;;;56.35;4.39;101088.06;6189223;23;20382;-83
2022/08/13 15:52:19;;;;;;;10.02;9.23;;;;;;;56.31;4.17;101083.84;6215776;23;20043;-84
2022/08/13 15:58:15;;;;;;;9.05;8.45;;;;;;;55.47;4.78;101073.84;6216804;23;20007;-84
2022/08/13 16:04:14;;;;;;;9.37;8.60;;;;;;;54.47;5.38;101067.97;6217529;23;20059;-84
2022/08/13 16:10:07;;;;;;;10.00;8.55;;;;;;;53.11;5.81;101058.97;6217316;23;20008;-84